Time;durP1;ratioP1;P1;durP2;ratioP2;P2;SDS_P1;SDS_P2;PMS_P1;PMS_P2;Temp;Humidity;BMP_temperature;BMP_pressure;BME280_temperature;BME280_humidity;BME280_pressure;Samples;Min_cycle;Max_cycle;Signal;HPM_P1;HPM_P2
2023/02/27 00:01:25;;;;;;;;;;;;;;;;;;5053479;28;19928;-66
2023/02/27 00:03:50;;;;;;;;;;;;;;;;;;5053152;28;19932;-66
2023/02/27 00:06:18;;;;;;;;;;;;;;;;;;5050401;28;20365;-66
2023/02/27 00:08:44;;;;;;;;;;;;;;;;;;5048616;28;19939;-66
2023/02/27 00:11:10;;;;;;;;;;;;;;;;;;5051403;28;19921;-66
2023/02/27 00:13:36;;;;;;;;;;;;;;;;;;5051061;28;19929;-66
2023/02/27 00:16:01;;;;;;;;;;;;;;;;;;5053120;28;19921;-66
2023/02/27 00:18:27;;;;;;;;;;;;;;;;;;5048582;28;20312;-66
2023/02/27 00:20:53;;;;;;;;;;;;;;;;;;5048086;28;20007;-66
2023/02/27 00:23:19;;;;;;;;;;;;;;;;;;5052345;28;19920;-66
2023/02/27 00:25:45;;;;;;;;;;;;;;;;;;5053662;28;19927;-66
2023/02/27 00:28:11;;;;;;;;;;;;;;;;;;5051185;28;19964;-65
2023/02/27 00:30:37;;;;;;;;;;;;;;;;;;5052986;28;19928;-66
2023/02/27 00:33:03;;;;;;;;;;;;;;;;;;5056242;28;19924;-66
2023/02/27 00:35:29;;;;;;;;;;;;;;;;;;5054198;28;19924;-66
2023/02/27 00:37:54;;;;;;;;;;;;;;;;;;5052999;28;20324;-66
2023/02/27 00:40:20;;;;;;;;;;;;;;;;;;5052516;28;20393;-66
2023/02/27 00:42:48;;;;;;;;;;;;;;;;;;5034299;28;19929;-66
2023/02/27 00:45:14;;;;;;;;;;;;;;;;;;5026367;28;19925;-66
2023/02/27 00:47:40;;;;;;;;;;;;;;;;;;5052421;28;20447;-66
2023/02/27 00:50:08;;;;;;;;;;;;;;;;;;5051625;28;19921;-66
2023/02/27 00:52:34;;;;;;;;;;;;;;;;;;5052017;28;19935;-66
2023/02/27 00:55:01;;;;;;;;;;;;;;;;;;5036110;28;20366;-66
2023/02/27 00:57:27;;;;;;;;;;;;;;;;;;5048912;28;19935;-66
2023/02/27 00:59:53;;;;;;;;;;;;;;;;;;5048840;28;20004;-66
2023/02/27 01:02:19;;;;;;;;;;;;;;;;;;5050877;28;19925;-66
2023/02/27 01:04:44;;;;;;;;;;;;;;;;;;5052709;28;20305;-66
2023/02/27 01:07:10;;;;;;;;;;;;;;;;;;5035117;28;19927;-66
2023/02/27 01:09:36;;;;;;;;;;;;;;;;;;5047889;28;19929;-67
2023/02/27 01:12:02;;;;;;;;;;;;;;;;;;5053590;28;19928;-64
2023/02/27 01:14:28;;;;;;;;;;;;;;;;;;5051987;28;20405;-65
2023/02/27 01:16:54;;;;;;;;;;;;;;;;;;5053122;28;19921;-66
2023/02/27 01:19:20;;;;;;;;;;;;;;;;;;5032810;28;19986;-66
2023/02/27 01:21:46;;;;;;;;;;;;;;;;;;5052590;28;20011;-65
2023/02/27 01:24:12;;;;;;;;;;;;;;;;;;5051235;28;20385;-66
2023/02/27 01:26:38;;;;;;;;;;;;;;;;;;5052843;28;19920;-66
2023/02/27 01:29:04;;;;;;;;;;;;;;;;;;5046401;28;19936;-66
2023/02/27 01:31:29;;;;;;;;;;;;;;;;;;5048710;28;19920;-66
2023/02/27 01:33:55;;;;;;;;;;;;;;;;;;5051238;28;19978;-66
2023/02/27 01:36:21;;;;;;;;;;;;;;;;;;5053705;28;20019;-66
2023/02/27 01:38:47;;;;;;;;;;;;;;;;;;5050978;28;19925;-66
2023/02/27 01:41:13;;;;;;;;;;;;;;;;;;5050440;28;19939;-66
2023/02/27 01:43:39;;;;;;;;;;;;;;;;;;5051702;28;20271;-65
2023/02/27 01:46:05;;;;;;;;;;;;;;;;;;5028813;28;19921;-65
2023/02/27 01:48:32;;;;;;;;;;;;;;;;;;5051470;28;19925;-65
2023/02/27 01:50:58;;;;;;;;;;;;;;;;;;5033142;28;20325;-65
2023/02/27 01:53:24;;;;;;;;;;;;;;;;;;5015854;28;19955;-65
2023/02/27 01:55:50;;;;;;;;;;;;;;;;;;5050781;28;19921;-65
2023/02/27 01:58:16;;;;;;;;;;;;;;;;;;5044149;28;19921;-65
2023/02/27 02:00:42;;;;;;;;;;;;;;;;;;5040059;28;19920;-65
2023/02/27 02:03:08;;;;;;;;;;;;;;;;;;5046395;28;20334;-65
2023/02/27 02:05:34;;;;;;;;;;;;;;;;;;5048359;28;19970;-65
2023/02/27 02:08:00;;;;;;;;;;;;;;;;;;5051363;28;19920;-65
2023/02/27 02:10:26;;;;;;;;;;;;;;;;;;5015483;28;19936;-65
2023/02/27 02:12:51;;;;;;;;;;;;;;;;;;5048444;28;19932;-65
2023/02/27 02:15:17;;;;;;;;;;;;;;;;;;5042234;28;19921;-66
2023/02/27 02:17:44;;;;;;;;;;;;;;;;;;5045574;28;19932;-66
2023/02/27 02:20:10;;;;;;;;;;;;;;;;;;5050241;28;19924;-66
2023/02/27 02:22:36;;;;;;;;;;;;;;;;;;5032216;28;20287;-66
2023/02/27 02:25:02;;;;;;;;;;;;;;;;;;5051869;28;19920;-66
2023/02/27 02:27:28;;;;;;;;;;;;;;;;;;5050066;28;20010;-66
2023/02/27 02:29:54;;;;;;;;;;;;;;;;;;5049953;28;20398;-66
2023/02/27 02:32:20;;;;;;;;;;;;;;;;;;5049663;28;20570;-66
2023/02/27 02:34:46;;;;;;;;;;;;;;;;;;5051496;28;19974;-66
2023/02/27 02:37:12;;;;;;;;;;;;;;;;;;5049789;28;20011;-66
2023/02/27 02:39:38;;;;;;;;;;;;;;;;;;5031810;28;19924;-66
2023/02/27 02:42:04;;;;;;;;;;;;;;;;;;5049720;28;19925;-66
2023/02/27 02:44:29;;;;;;;;;;;;;;;;;;5051373;28;19921;-66
2023/02/27 02:46:55;;;;;;;;;;;;;;;;;;5033214;28;19925;-66
2023/02/27 02:49:21;;;;;;;;;;;;;;;;;;5050582;28;19924;-66
2023/02/27 02:51:47;;;;;;;;;;;;;;;;;;5033375;28;19920;-66
2023/02/27 02:54:13;;;;;;;;;;;;;;;;;;5049393;28;19979;-65
2023/02/27 02:56:39;;;;;;;;;;;;;;;;;;5030941;28;20476;-65
2023/02/27 02:59:05;;;;;;;;;;;;;;;;;;5040876;28;19978;-65
2023/02/27 03:01:31;;;;;;;;;;;;;;;;;;5049824;28;19967;-65
2023/02/27 03:03:57;;;;;;;;;;;;;;;;;;5052482;28;19924;-65
2023/02/27 03:06:23;;;;;;;;;;;;;;;;;;5034620;28;19936;-65
2023/02/27 03:08:48;;;;;;;;;;;;;;;;;;5017135;28;19932;-65
2023/02/27 03:11:14;;;;;;;;;;;;;;;;;;5030161;28;20271;-65
2023/02/27 03:13:40;;;;;;;;;;;;;;;;;;5034974;28;19933;-65
2023/02/27 03:16:06;;;;;;;;;;;;;;;;;;5015603;28;19925;-66
2023/02/27 03:18:32;;;;;;;;;;;;;;;;;;5018960;28;20286;-66
2023/02/27 03:20:58;;;;;;;;;;;;;;;;;;5033078;28;19965;-66
2023/02/27 03:23:24;;;;;;;;;;;;;;;;;;5016026;28;19992;-66
2023/02/27 03:25:50;;;;;;;;;;;;;;;;;;5031086;28;19942;-66
2023/02/27 03:28:16;;;;;;;;;;;;;;;;;;5032827;28;19932;-66
2023/02/27 03:30:41;;;;;;;;;;;;;;;;;;5040510;28;19924;-66
2023/02/27 03:33:07;;;;;;;;;;;;;;;;;;5037028;28;19979;-66
2023/02/27 03:35:33;;;;;;;;;;;;;;;;;;5047848;28;19925;-66
2023/02/27 03:37:59;;;;;;;;;;;;;;;;;;5034717;28;19925;-66
2023/02/27 03:40:25;;;;;;;;;;;;;;;;;;5018842;28;19922;-66
2023/02/27 03:42:51;;;;;;;;;;;;;;;;;;5026972;28;19984;-66
2023/02/27 03:45:17;;;;;;;;;;;;;;;;;;5031641;28;19922;-66
2023/02/27 03:47:43;;;;;;;;;;;;;;;;;;5033249;28;20342;-66
2023/02/27 03:50:09;;;;;;;;;;;;;;;;;;5034600;28;19921;-66
2023/02/27 03:52:35;;;;;;;;;;;;;;;;;;5034000;28;19933;-66
2023/02/27 03:55:01;;;;;;;;;;;;;;;;;;5034205;28;19921;-66
2023/02/27 03:57:26;;;;;;;;;;;;;;;;;;5026031;28;20263;-66
2023/02/27 03:59:52;;;;;;;;;;;;;;;;;;5029314;28;19961;-66
2023/02/27 04:02:18;;;;;;;;;;;;;;;;;;5033288;28;20639;-66
2023/02/27 04:04:44;;;;;;;;;;;;;;;;;;5051184;28;20021;-66
2023/02/27 04:07:23;;;;;;;;;;;;;;;;;;5053537;28;19970;-66
2023/02/27 04:09:48;;;;;;;;;;;;;;;;;;5054220;28;19920;-66
2023/02/27 04:12:15;;;;;;;;;;;;;;;;;;5052027;28;20011;-66
2023/02/27 04:14:41;;;;;;;;;;;;;;;;;;5051936;28;19929;-66
2023/02/27 04:17:07;;;;;;;;;;;;;;;;;;5032633;28;20453;-66
2023/02/27 04:19:33;;;;;;;;;;;;;;;;;;5054057;28;19921;-66
2023/02/27 04:21:59;;;;;;;;;;;;;;;;;;5051883;28;19920;-66
2023/02/27 04:24:24;;;;;;;;;;;;;;;;;;5054419;28;19929;-66
2023/02/27 04:26:50;;;;;;;;;;;;;;;;;;5052734;28;19921;-66
2023/02/27 04:29:16;;;;;;;;;;;;;;;;;;5052061;28;19974;-66
2023/02/27 04:31:42;;;;;;;;;;;;;;;;;;5051520;28;20487;-65
2023/02/27 04:34:08;;;;;;;;;;;;;;;;;;5050837;28;19928;-65
2023/02/27 04:36:34;;;;;;;;;;;;;;;;;;5051455;28;19921;-66
2023/02/27 04:39:00;;;;;;;;;;;;;;;;;;5053071;28;20374;-66
2023/02/27 04:41:26;;;;;;;;;;;;;;;;;;5052911;28;19921;-66
2023/02/27 04:43:52;;;;;;;;;;;;;;;;;;5049481;28;19956;-66
2023/02/27 04:46:18;;;;;;;;;;;;;;;;;;5037800;28;20390;-66
2023/02/27 04:48:44;;;;;;;;;;;;;;;;;;5039553;28;19925;-66
2023/02/27 04:51:09;;;;;;;;;;;;;;;;;;5035513;28;19921;-66
2023/02/27 04:53:35;;;;;;;;;;;;;;;;;;5048728;28;19947;-66
2023/02/27 04:56:01;;;;;;;;;;;;;;;;;;5050681;28;20337;-66
2023/02/27 04:58:27;;;;;;;;;;;;;;;;;;5034806;28;20043;-66
2023/02/27 05:00:53;;;;;;;;;;;;;;;;;;5050833;28;19928;-66
2023/02/27 05:03:19;;;;;;;;;;;;;;;;;;5050736;28;20492;-66
2023/02/27 05:05:45;;;;;;;;;;;;;;;;;;5051304;28;19920;-66
2023/02/27 05:08:11;;;;;;;;;;;;;;;;;;5052068;28;19924;-66
2023/02/27 05:10:37;;;;;;;;;;;;;;;;;;5052484;28;20042;-66
2023/02/27 05:13:03;;;;;;;;;;;;;;;;;;5052774;28;19964;-66
2023/02/27 05:15:28;;;;;;;;;;;;;;;;;;5052549;28;19966;-66
2023/02/27 05:17:55;;;;;;;;;;;;;;;;;;5051706;28;19939;-66
2023/02/27 05:20:21;;;;;;;;;;;;;;;;;;5030778;28;19921;-66
2023/02/27 05:22:46;;;;;;;;;;;;;;;;;;5033028;28;20045;-66
2023/02/27 05:25:12;;;;;;;;;;;;;;;;;;5050003;28;20275;-66
2023/02/27 05:27:38;;;;;;;;;;;;;;;;;;5052003;28;19927;-66
2023/02/27 05:30:04;;;;;;;;;;;;;;;;;;5051461;28;20290;-66
2023/02/27 05:32:30;;;;;;;;;;;;;;;;;;5051377;28;19943;-66
2023/02/27 05:34:56;;;;;;;;;;;;;;;;;;5050047;28;19920;-66
2023/02/27 05:37:22;;;;;;;;;;;;;;;;;;5047199;28;19920;-66
2023/02/27 05:39:48;;;;;;;;;;;;;;;;;;5031090;28;20438;-66
2023/02/27 05:42:14;;;;;;;;;;;;;;;;;;5034185;28;20039;-66
2023/02/27 05:44:40;;;;;;;;;;;;;;;;;;5050865;28;19936;-66
2023/02/27 05:47:06;;;;;;;;;;;;;;;;;;5052046;28;20656;-66
2023/02/27 05:49:32;;;;;;;;;;;;;;;;;;5051944;28;19999;-66
2023/02/27 05:51:58;;;;;;;;;;;;;;;;;;5049132;28;20375;-66
2023/02/27 05:54:24;;;;;;;;;;;;;;;;;;5051063;28;19932;-66
2023/02/27 05:56:50;;;;;;;;;;;;;;;;;;5050575;28;20024;-66
2023/02/27 05:59:16;;;;;;;;;;;;;;;;;;5051669;28;19947;-66
2023/02/27 06:01:42;;;;;;;;;;;;;;;;;;5048735;28;20398;-66
2023/02/27 06:04:08;;;;;;;;;;;;;;;;;;5048480;28;19925;-66
2023/02/27 06:06:34;;;;;;;;;;;;;;;;;;5049906;28;19933;-66
2023/02/27 06:08:59;;;;;;;;;;;;;;;;;;5050589;28;19931;-66
2023/02/27 06:11:25;;;;;;;;;;;;;;;;;;5047124;28;19920;-66
2023/02/27 06:13:51;;;;;;;;;;;;;;;;;;5044187;28;19925;-66
2023/02/27 06:16:17;;;;;;;;;;;;;;;;;;5031813;28;19928;-66
2023/02/27 06:18:43;;;;;;;;;;;;;;;;;;5049729;28;20058;-66
2023/02/27 06:21:09;;;;;;;;;;;;;;;;;;5050810;28;20419;-66
2023/02/27 06:23:35;;;;;;;;;;;;;;;;;;5050399;28;20001;-66
2023/02/27 06:26:01;;;;;;;;;;;;;;;;;;5050563;28;19955;-66
2023/02/27 06:28:27;;;;;;;;;;;;;;;;;;5048748;28;19928;-66
2023/02/27 06:30:52;;;;;;;;;;;;;;;;;;5049302;28;19921;-66
2023/02/27 06:33:18;;;;;;;;;;;;;;;;;;5050821;28;19940;-66
2023/02/27 06:35:44;;;;;;;;;;;;;;;;;;5029546;28;19921;-66
2023/02/27 06:38:10;;;;;;;;;;;;;;;;;;5046554;28;19931;-66
2023/02/27 06:40:37;;;;;;;;;;;;;;;;;;5050736;28;19925;-66
2023/02/27 06:43:03;;;;;;;;;;;;;;;;;;5050852;28;19920;-66
2023/02/27 06:45:28;;;;;;;;;;;;;;;;;;5050892;28;20385;-66
2023/02/27 06:47:54;;;;;;;;;;;;;;;;;;5049936;28;19929;-66
2023/02/27 06:50:20;;;;;;;;;;;;;;;;;;5015638;28;19921;-66
2023/02/27 06:52:46;;;;;;;;;;;;;;;;;;5022766;28;20387;-66
2023/02/27 06:55:18;;;;;;;;;;;;;;;;;;5040300;28;20371;-66
2023/02/27 06:57:45;;;;;;;;;;;;;;;;;;5050944;28;19921;-66
2023/02/27 07:00:11;;;;;;;;;;;;;;;;;;5048473;28;20004;-66
2023/02/27 07:02:37;;;;;;;;;;;;;;;;;;5032027;28;19925;-66
2023/02/27 07:05:03;;;;;;;;;;;;;;;;;;5039840;28;19920;-66
2023/02/27 07:07:29;;;;;;;;;;;;;;;;;;5048010;28;19927;-66
2023/02/27 07:09:55;;;;;;;;;;;;;;;;;;5039508;28;19963;-66
2023/02/27 07:12:21;;;;;;;;;;;;;;;;;;5047270;28;19973;-66
2023/02/27 07:14:47;;;;;;;;;;;;;;;;;;5048274;28;19932;-66
2023/02/27 07:17:13;;;;;;;;;;;;;;;;;;5049171;28;19956;-66
2023/02/27 07:19:39;;;;;;;;;;;;;;;;;;5050576;28;19925;-66
2023/02/27 07:22:05;;;;;;;;;;;;;;;;;;5047842;28;20355;-66
2023/02/27 07:24:30;;;;;;;;;;;;;;;;;;5046861;28;19955;-66
2023/02/27 07:26:56;;;;;;;;;;;;;;;;;;5042691;28;19928;-66
2023/02/27 07:29:22;;;;;;;;;;;;;;;;;;5058810;28;19924;-66
2023/02/27 07:31:48;;;;;;;;;;;;;;;;;;5052014;28;20362;-65
2023/02/27 07:34:14;;;;;;;;;;;;;;;;;;5050508;28;19929;-65
2023/02/27 07:36:40;;;;;;;;;;;;;;;;;;5032777;28;19925;-65
2023/02/27 07:39:07;;;;;;;;;;;;;;;;;;5050583;28;19936;-65
2023/02/27 07:41:33;;;;;;;;;;;;;;;;;;5045725;28;19924;-65
2023/02/27 07:43:59;;;;;;;;;;;;;;;;;;5039390;28;19929;-65
2023/02/27 07:46:26;;;;;;;;;;;;;;;;;;5031082;28;20474;-65
2023/02/27 07:48:51;;;;;;;;;;;;;;;;;;5031050;28;20268;-65
2023/02/27 07:51:17;;;;;;;;;;;;;;;;;;5041333;28;19929;-65
2023/02/27 07:53:43;;;;;;;;;;;;;;;;;;5042700;28;19933;-65
2023/02/27 07:56:09;;;;;;;;;;;;;;;;;;5048386;28;20433;-65
2023/02/27 07:58:35;;;;;;;;;;;;;;;;;;5043584;28;19955;-65
2023/02/27 08:01:01;;;;;;;;;;;;;;;;;;5047709;28;19931;-65
2023/02/27 08:03:27;;;;;;;;;;;;;;;;;;5036184;28;20223;-65
2023/02/27 08:05:53;;;;;;;;;;;;;;;;;;5022139;28;19921;-64
2023/02/27 08:08:20;;;;;;;;;;;;;;;;;;5048952;28;19931;-65
2023/02/27 08:10:46;;;;;;;;;;;;;;;;;;5052056;28;19920;-65
2023/02/27 08:13:13;;;;;;;;;;;;;;;;;;5052472;28;20054;-65
2023/02/27 08:15:39;;;;;;;;;;;;;;;;;;5048137;28;19924;-65
2023/02/27 08:18:05;;;;;;;;;;;;;;;;;;5035447;28;19921;-65
2023/02/27 08:20:31;;;;;;;;;;;;;;;;;;5053543;28;19928;-64
2023/02/27 08:22:56;;;;;;;;;;;;;;;;;;5048218;28;20385;-65
2023/02/27 08:25:22;;;;;;;;;;;;;;;;;;5046495;28;19963;-65
2023/02/27 08:27:48;;;;;;;;;;;;;;;;;;5053734;28;19924;-65
2023/02/27 08:30:15;;;;;;;;;;;;;;;;;;5031500;28;19928;-64
2023/02/27 08:32:41;;;;;;;;;;;;;;;;;;5051815;28;19956;-64
2023/02/27 08:35:07;;;;;;;;;;;;;;;;;;5042934;28;19987;-64
2023/02/27 08:37:33;;;;;;;;;;;;;;;;;;5053860;28;19924;-64
2023/02/27 08:39:59;;;;;;;;;;;;;;;;;;5052279;28;20357;-64
2023/02/27 08:42:25;;;;;;;;;;;;;;;;;;5045973;28;19929;-64
2023/02/27 08:44:51;;;;;;;;;;;;;;;;;;5051961;28;19928;-64
2023/02/27 08:47:20;;;;;;;;;;;;;;;;;;5049437;28;19932;-64
2023/02/27 08:49:46;;;;;;;;;;;;;;;;;;5034025;28;19924;-64
2023/02/27 08:52:12;;;;;;;;;;;;;;;;;;5049845;28;20007;-64
2023/02/27 08:54:37;;;;;;;;;;;;;;;;;;5050107;28;19936;-64
2023/02/27 08:57:03;;;;;;;;;;;;;;;;;;5032930;28;19968;-64
2023/02/27 08:59:29;;;;;;;;;;;;;;;;;;5038676;28;19925;-64
2023/02/27 09:01:55;;;;;;;;;;;;;;;;;;5045664;28;19927;-65
2023/02/27 09:04:21;;;;;;;;;;;;;;;;;;5041216;28;20311;-65
2023/02/27 09:06:47;;;;;;;;;;;;;;;;;;5044399;28;19921;-65
2023/02/27 09:09:13;;;;;;;;;;;;;;;;;;5051823;28;19931;-64
2023/02/27 09:11:39;;;;;;;;;;;;;;;;;;5046056;28;19920;-64
2023/02/27 09:14:05;;;;;;;;;;;;;;;;;;5053120;28;20019;-64
2023/02/27 09:16:30;;;;;;;;;;;;;;;;;;5051627;28;20027;-64
2023/02/27 09:18:56;;;;;;;;;;;;;;;;;;5088493;23;19928;-64
2023/02/27 09:21:23;;;;;;;;;;;;;;;;;;5111951;28;19928;-64
2023/02/27 09:23:49;;;;;;;;;;;;;;;;;;5113303;28;19955;-64
2023/02/27 09:26:16;;;;;;;;;;;;;;;;;;5112198;28;20337;-64
2023/02/27 09:28:41;;;;;;;;;;;;;;;;;;5090150;28;19920;-64
2023/02/27 09:31:07;;;;;;;;;;;;;;;;;;5113434;28;20283;-64
2023/02/27 09:33:33;;;;;;;;;;;;;;;;;;5112328;28;19923;-64
2023/02/27 09:35:59;;;;;;;;;;;;;;;;;;5109101;28;19996;-64
2023/02/27 09:38:25;;;;;;;;;;;;;;;;;;5111621;28;19928;-64
2023/02/27 09:40:51;;;;;;;;;;;;;;;;;;5109918;28;19931;-64
2023/02/27 09:43:17;;;;;;;;;;;;;;;;;;5089131;28;19927;-64
2023/02/27 09:45:43;;;;;;;;;;;;;;;;;;5107809;28;19930;-64
2023/02/27 09:48:09;;;;;;;;;;;;;;;;;;5104435;28;20006;-63
2023/02/27 09:50:35;;;;;;;;;;;;;;;;;;5112034;28;20006;-64
2023/02/27 09:53:01;;;;;;;;;;;;;;;;;;5109129;28;19974;-64
2023/02/27 09:55:27;;;;;;;;;;;;;;;;;;5106933;28;19967;-64
2023/02/27 09:57:55;;;;;;;;;;;;;;;;;;5110817;28;19919;-64
2023/02/27 10:00:21;;;;;;;;;;;;;;;;;;5111743;28;19919;-64
2023/02/27 10:02:46;;;;;;;;;;;;;;;;;;5102046;28;19927;-64
2023/02/27 10:05:12;;;;;;;;;;;;;;;;;;5108755;28;20002;-64
2023/02/27 10:07:38;;;;;;;;;;;;;;;;;;5093572;28;19923;-64
2023/02/27 10:10:04;;;;;;;;;;;;;;;;;;5107381;28;19930;-64
2023/02/27 10:12:31;;;;;;;;;;;;;;;;;;5092951;28;19920;-64
2023/02/27 10:14:56;;;;;;;;;;;;;;;;;;5110900;27;19931;-64
2023/02/27 10:17:23;;;;;;;;;;;;;;;;;;5110294;28;19926;-64
2023/02/27 10:19:49;;;;;;;;;;;;;;;;;;5106392;28;19924;-64
2023/02/27 10:22:15;;;;;;;;;;;;;;;;;;5113095;28;19927;-64
2023/02/27 10:24:41;;;;;;;;;;;;;;;;;;5106414;28;19927;-64
2023/02/27 10:27:06;;;;;;;;;;;;;;;;;;5087355;28;19920;-64
2023/02/27 10:29:32;;;;;;;;;;;;;;;;;;5107748;28;19926;-64
2023/02/27 10:31:58;;;;;;;;;;;;;;;;;;5109273;28;19923;-64
2023/02/27 10:34:24;;;;;;;;;;;;;;;;;;5104911;28;19924;-64
2023/02/27 10:36:51;;;;;;;;;;;;;;;;;;5103342;28;19977;-64
2023/02/27 10:39:17;;;;;;;;;;;;;;;;;;5110456;28;19970;-64
2023/02/27 10:41:43;;;;;;;;;;;;;;;;;;5107379;28;20354;-64
2023/02/27 10:44:09;;;;;;;;;;;;;;;;;;5108734;28;20325;-64
2023/02/27 10:46:36;;;;;;;;;;;;;;;;;;5109758;28;20258;-64
2023/02/27 10:49:04;;;;;;;;;;;;;;;;;;5091198;28;19928;-65
2023/02/27 10:51:30;;;;;;;;;;;;;;;;;;5111283;28;19920;-64
2023/02/27 10:53:56;;;;;;;;;;;;;;;;;;5109918;28;19928;-64
2023/02/27 10:56:22;;;;;;;;;;;;;;;;;;5111861;28;19927;-64
2023/02/27 10:58:48;;;;;;;;;;;;;;;;;;5105591;28;19924;-64
2023/02/27 11:01:13;;;;;;;;;;;;;;;;;;5099286;28;20460;-65
2023/02/27 11:03:39;;;;;;;;;;;;;;;;;;5076315;28;19926;-64
2023/02/27 11:06:05;;;;;;;;;;;;;;;;;;5099986;28;19924;-64
2023/02/27 11:08:31;;;;;;;;;;;;;;;;;;5105843;28;20334;-64
2023/02/27 11:10:57;;;;;;;;;;;;;;;;;;5107899;28;20386;-64
2023/02/27 11:13:24;;;;;;;;;;;;;;;;;;5099386;28;19923;-64
2023/02/27 11:15:50;;;;;;;;;;;;;;;;;;5106200;28;19930;-64
2023/02/27 11:18:16;;;;;;;;;;;;;;;;;;5111799;28;20006;-64
2023/02/27 11:20:42;;;;;;;;;;;;;;;;;;5099220;28;20108;-64
2023/02/27 11:23:08;;;;;;;;;;;;;;;;;;5108331;28;20288;-64
2023/02/27 11:25:34;;;;;;;;;;;;;;;;;;5107811;28;19924;-64
2023/02/27 11:28:00;;;;;;;;;;;;;;;;;;5112292;28;19919;-65
2023/02/27 11:30:26;;;;;;;;;;;;;;;;;;5115050;28;20372;-64
2023/02/27 11:32:52;;;;;;;;;;;;;;;;;;5112881;28;19931;-64
2023/02/27 11:35:18;;;;;;;;;;;;;;;;;;5110814;28;19924;-64
2023/02/27 11:37:44;;;;;;;;;;;;;;;;;;5107001;28;20040;-64
2023/02/27 11:40:12;;;;;;;;;;;;;;;;;;5110132;28;19923;-64
2023/02/27 11:42:37;;;;;;;;;;;;;;;;;;5110309;28;19999;-64
2023/02/27 11:45:03;;;;;;;;;;;;;;;;;;5102349;28;20003;-64
2023/02/27 11:47:30;;;;;;;;;;;;;;;;;;5093849;28;19920;-64
2023/02/27 11:49:55;;;;;;;;;;;;;;;;;;5115780;28;19920;-64
2023/02/27 11:52:21;;;;;;;;;;;;;;;;;;5112072;28;19930;-64
2023/02/27 11:54:47;;;;;;;;;;;;;;;;;;5115552;28;20319;-64
2023/02/27 11:57:13;;;;;;;;;;;;;;;;;;5097161;28;19924;-64
2023/02/27 11:59:39;;;;;;;;;;;;;;;;;;5108922;28;19965;-63
2023/02/27 12:02:06;;;;;;;;;;;;;;;;;;5111761;28;19928;-64
2023/02/27 12:04:32;;;;;;;;;;;;;;;;;;5106555;28;19919;-64
2023/02/27 12:06:57;;;;;;;;;;;;;;;;;;5115030;28;20332;-65
2023/02/27 12:09:23;;;;;;;;;;;;;;;;;;5115775;28;19924;-65
2023/02/27 12:11:49;;;;;;;;;;;;;;;;;;5112436;28;19988;-65
2023/02/27 12:14:15;;;;;;;;;;;;;;;;;;5115733;28;19924;-65
2023/02/27 12:16:41;;;;;;;;;;;;;;;;;;5115644;28;19924;-65
2023/02/27 12:19:07;;;;;;;;;;;;;;;;;;5115523;28;19926;-65
2023/02/27 12:21:33;;;;;;;;;;;;;;;;;;5115567;28;19934;-65
2023/02/27 12:23:59;;;;;;;;;;;;;;;;;;5110110;28;19926;-65
2023/02/27 12:26:25;;;;;;;;;;;;;;;;;;5115520;28;19924;-65
2023/02/27 12:28:51;;;;;;;;;;;;;;;;;;5093907;28;19924;-65
2023/02/27 12:31:17;;;;;;;;;;;;;;;;;;5095025;28;20387;-65
2023/02/27 12:33:42;;;;;;;;;;;;;;;;;;5094780;28;19999;-65
2023/02/27 12:36:08;;;;;;;;;;;;;;;;;;5094730;28;20576;-65
2023/02/27 12:38:34;;;;;;;;;;;;;;;;;;5094908;28;19924;-65
2023/02/27 12:41:01;;;;;;;;;;;;;;;;;;5094927;28;20011;-65
2023/02/27 12:43:27;;;;;;;;;;;;;;;;;;5114942;28;19920;-65
2023/02/27 12:45:53;;;;;;;;;;;;;;;;;;5114984;28;19926;-65
2023/02/27 12:48:19;;;;;;;;;;;;;;;;;;5114963;28;19930;-65
2023/02/27 12:50:45;;;;;;;;;;;;;;;;;;5111521;28;19928;-65
2023/02/27 12:53:11;;;;;;;;;;;;;;;;;;5114736;28;19926;-65
2023/02/27 12:55:37;;;;;;;;;;;;;;;;;;5114882;28;19927;-66
2023/02/27 12:58:03;;;;;;;;;;;;;;;;;;5114503;28;20331;-66
2023/02/27 13:00:29;;;;;;;;;;;;;;;;;;5115086;28;19969;-66
2023/02/27 13:02:54;;;;;;;;;;;;;;;;;;5112020;28;19923;-66
2023/02/27 13:05:21;;;;;;;;;;;;;;;;;;5094241;28;20288;-66
2023/02/27 13:07:47;;;;;;;;;;;;;;;;;;5100857;28;19939;-66
2023/02/27 13:10:13;;;;;;;;;;;;;;;;;;5114648;28;20010;-66
2023/02/27 13:12:39;;;;;;;;;;;;;;;;;;5094086;28;19930;-65
2023/02/27 13:15:05;;;;;;;;;;;;;;;;;;5114426;28;19931;-65
2023/02/27 13:17:31;;;;;;;;;;;;;;;;;;5114107;28;19926;-65
2023/02/27 13:19:56;;;;;;;;;;;;;;;;;;5095683;28;20007;-65
2023/02/27 13:22:22;;;;;;;;;;;;;;;;;;5114256;28;20012;-65
2023/02/27 13:24:48;;;;;;;;;;;;;;;;;;5113299;28;20268;-65
2023/02/27 13:27:14;;;;;;;;;;;;;;;;;;5113824;28;19931;-65
2023/02/27 13:29:40;;;;;;;;;;;;;;;;;;5114241;28;20357;-65
2023/02/27 13:32:06;;;;;;;;;;;;;;;;;;5095391;28;20315;-65
2023/02/27 13:34:32;;;;;;;;;;;;;;;;;;5114278;28;19919;-65
2023/02/27 13:36:58;;;;;;;;;;;;;;;;;;5113926;28;19977;-65
2023/02/27 13:39:24;;;;;;;;;;;;;;;;;;5095370;28;19920;-65
2023/02/27 13:41:50;;;;;;;;;;;;;;;;;;5114132;28;19923;-65
2023/02/27 13:44:16;;;;;;;;;;;;;;;;;;5112767;27;20373;-65
2023/02/27 13:46:41;;;;;;;;;;;;;;;;;;5111733;28;19920;-65
2023/02/27 13:49:07;;;;;;;;;;;;;;;;;;5095132;28;19920;-65
2023/02/27 13:51:33;;;;;;;;;;;;;;;;;;5105869;28;19931;-65
2023/02/27 13:53:59;;;;;;;;;;;;;;;;;;5112101;28;19947;-65
2023/02/27 13:56:25;;;;;;;;;;;;;;;;;;5113579;28;19935;-65
2023/02/27 13:58:51;;;;;;;;;;;;;;;;;;5113380;28;20078;-65
2023/02/27 14:01:17;;;;;;;;;;;;;;;;;;5113611;28;19924;-64
2023/02/27 14:03:43;;;;;;;;;;;;;;;;;;5111887;28;19943;-66
2023/02/27 14:06:09;;;;;;;;;;;;;;;;;;5110864;28;20353;-66
2023/02/27 14:08:35;;;;;;;;;;;;;;;;;;5093364;28;19970;-66
2023/02/27 14:11:01;;;;;;;;;;;;;;;;;;5113182;28;19993;-66
2023/02/27 14:13:27;;;;;;;;;;;;;;;;;;5111332;28;20361;-66
2023/02/27 14:15:53;;;;;;;;;;;;;;;;;;5113016;28;20011;-66
2023/02/27 14:18:19;;;;;;;;;;;;;;;;;;5111306;28;19928;-66
2023/02/27 14:20:45;;;;;;;;;;;;;;;;;;5109137;27;19958;-66
2023/02/27 14:23:11;;;;;;;;;;;;;;;;;;5111154;28;20590;-66
2023/02/27 14:25:38;;;;;;;;;;;;;;;;;;5111290;28;19958;-65
2023/02/27 14:28:04;;;;;;;;;;;;;;;;;;5094948;28;20273;-65
2023/02/27 14:30:30;;;;;;;;;;;;;;;;;;5112953;28;19941;-65
2023/02/27 14:32:55;;;;;;;;;;;;;;;;;;5094642;28;20280;-65
2023/02/27 14:35:21;;;;;;;;;;;;;;;;;;5111190;28;19972;-65
2023/02/27 14:37:47;;;;;;;;;;;;;;;;;;5112804;28;19967;-65
2023/02/27 14:40:13;;;;;;;;;;;;;;;;;;5112553;28;19923;-65
2023/02/27 14:42:39;;;;;;;;;;;;;;;;;;5098752;28;19945;-64
2023/02/27 14:45:05;;;;;;;;;;;;;;;;;;5110810;28;19931;-64
2023/02/27 14:47:31;;;;;;;;;;;;;;;;;;5112832;28;20324;-64
2023/02/27 14:49:57;;;;;;;;;;;;;;;;;;5112465;28;19919;-64
2023/02/27 14:52:23;;;;;;;;;;;;;;;;;;5112810;28;19926;-65
2023/02/27 14:54:48;;;;;;;;;;;;;;;;;;5112644;28;19930;-65
2023/02/27 14:57:14;;;;;;;;;;;;;;;;;;5094662;28;20285;-65
2023/02/27 14:59:40;;;;;;;;;;;;;;;;;;5113150;28;20502;-65
2023/02/27 15:02:06;;;;;;;;;;;;;;;;;;5108483;28;19938;-65
2023/02/27 15:04:32;;;;;;;;;;;;;;;;;;5097961;27;19928;-65
2023/02/27 15:06:58;;;;;;;;;;;;;;;;;;5109606;28;19945;-64
2023/02/27 15:09:24;;;;;;;;;;;;;;;;;;5108186;28;19920;-64
2023/02/27 15:11:50;;;;;;;;;;;;;;;;;;5100014;28;19920;-64
2023/02/27 15:14:16;;;;;;;;;;;;;;;;;;5087763;28;20578;-64
2023/02/27 15:16:42;;;;;;;;;;;;;;;;;;5111608;28;19924;-64
2023/02/27 15:19:08;;;;;;;;;;;;;;;;;;5112804;28;20291;-65
2023/02/27 15:21:34;;;;;;;;;;;;;;;;;;5115811;28;19928;-65
2023/02/27 15:24:00;;;;;;;;;;;;;;;;;;5114150;27;20059;-65
2023/02/27 15:26:28;;;;;;;;;;;;;;;;;;5108206;27;19920;-65
2023/02/27 15:28:54;;;;;;;;;;;;;;;;;;5077704;28;20389;-65
2023/02/27 15:31:20;;;;;;;;;;;;;;;;;;5090060;28;19920;-65
2023/02/27 15:33:46;;;;;;;;;;;;;;;;;;5115475;27;19931;-65
2023/02/27 15:36:12;;;;;;;;;;;;;;;;;;5109315;27;19981;-65
2023/02/27 15:38:38;;;;;;;;;;;;;;;;;;5097097;27;19920;-65
2023/02/27 15:41:04;;;;;;;;;;;;;;;;;;5093672;28;20001;-65
2023/02/27 15:43:30;;;;;;;;;;;;;;;;;;5114446;28;19923;-65
2023/02/27 15:45:57;;;;;;;;;;;;;;;;;;5113762;28;19919;-64
2023/02/27 15:48:22;;;;;;;;;;;;;;;;;;5114792;28;19927;-65
2023/02/27 15:50:48;;;;;;;;;;;;;;;;;;5115849;28;19919;-64
2023/02/27 15:53:15;;;;;;;;;;;;;;;;;;5112820;28;20253;-64
2023/02/27 15:55:41;;;;;;;;;;;;;;;;;;5113657;27;20031;-64
2023/02/27 15:58:07;;;;;;;;;;;;;;;;;;5106869;28;20376;-64
2023/02/27 16:00:33;;;;;;;;;;;;;;;;;;5106538;28;20338;-64
2023/02/27 16:02:59;;;;;;;;;;;;;;;;;;5108073;28;19997;-64
2023/02/27 16:05:25;;;;;;;;;;;;;;;;;;5108638;28;20011;-64
2023/02/27 16:07:51;;;;;;;;;;;;;;;;;;5102108;28;19924;-64
2023/02/27 16:10:17;;;;;;;;;;;;;;;;;;5109868;28;19926;-63
2023/02/27 16:12:43;;;;;;;;;;;;;;;;;;5108497;28;19919;-64
2023/02/27 16:15:09;;;;;;;;;;;;;;;;;;5112813;28;19928;-64
2023/02/27 16:17:35;;;;;;;;;;;;;;;;;;5109348;28;19923;-64
2023/02/27 16:20:01;;;;;;;;;;;;;;;;;;5088741;28;19934;-64
2023/02/27 16:22:29;;;;;;;;;;;;;;;;;;5105730;28;21368;-64
2023/02/27 16:24:55;;;;;;;;;;;;;;;;;;5094507;28;19930;-64
2023/02/27 16:27:21;;;;;;;;;;;;;;;;;;5103439;28;20022;-64
2023/02/27 16:29:47;;;;;;;;;;;;;;;;;;5113395;27;19924;-64
2023/02/27 16:32:13;;;;;;;;;;;;;;;;;;5111382;28;19919;-64
2023/02/27 16:34:39;;;;;;;;;;;;;;;;;;5110343;28;19934;-64
2023/02/27 16:37:05;;;;;;;;;;;;;;;;;;5113772;28;19928;-65